createdAt,value
2019-02-14T00:01:00.456Z,103401.02
2019-02-14T00:03:27.693Z,103398.83
2019-02-14T00:05:54.909Z,103403.66
2019-02-14T00:08:22.117Z,103394.05
2019-02-14T00:10:49.264Z,103395.00
2019-02-14T00:13:16.534Z,103394.52
2019-02-14T00:15:43.812Z,103400.22
2019-02-14T00:18:11.087Z,103398.06
2019-02-14T00:20:38.411Z,103398.92
2019-02-14T00:23:05.688Z,103403.71
2019-02-14T00:25:33.086Z,103405.90
2019-02-14T00:28:00.371Z,103401.54
2019-02-14T00:30:27.619Z,103405.87
2019-02-14T00:32:54.914Z,103398.41
2019-02-14T00:35:25.192Z,103396.63
2019-02-14T00:37:51.261Z,103391.39
2019-02-14T00:40:18.627Z,103399.27
2019-02-14T00:42:45.929Z,103395.31
2019-02-14T00:45:13.217Z,103402.75
2019-02-14T00:47:40.389Z,103400.97
2019-02-14T00:50:07.718Z,103399.66
2019-02-14T00:52:34.911Z,103401.86
2019-02-14T00:55:02.064Z,103400.52
2019-02-14T00:57:29.261Z,103398.78
2019-02-14T00:59:56.475Z,103397.08
2019-02-14T01:02:23.687Z,103392.69
2019-02-14T01:04:50.966Z,103396.13
2019-02-14T01:07:18.136Z,103388.25
2019-02-14T01:09:45.327Z,103390.88
2019-02-14T01:12:12.707Z,103404.44
2019-02-14T01:14:39.927Z,103407.97
2019-02-14T01:17:07.124Z,103413.20
2019-02-14T01:19:34.562Z,103418.45
2019-02-14T01:22:01.783Z,103412.80
2019-02-14T01:24:28.929Z,103410.22
2019-02-14T01:26:56.212Z,103408.03
2019-02-14T01:29:23.458Z,103406.30
2019-02-14T01:31:50.650Z,103400.62
2019-02-14T01:34:17.830Z,103398.88
2019-02-14T01:36:45.127Z,103395.36
2019-02-14T01:39:12.308Z,103389.22
2019-02-14T01:41:39.475Z,103384.82
2019-02-14T01:44:06.705Z,103390.95
2019-02-14T01:46:33.910Z,103382.59
2019-02-14T01:49:01.375Z,103380.44
2019-02-14T01:51:28.522Z,103379.99
2019-02-14T01:53:55.762Z,103369.48
2019-02-14T01:56:22.894Z,103363.30
2019-02-14T01:58:50.110Z,103358.97
2019-02-14T02:01:17.322Z,103361.59
2019-02-14T02:03:44.517Z,103373.44
2019-02-14T02:06:11.809Z,103370.44
2019-02-14T02:08:38.994Z,103380.95
2019-02-14T02:11:06.182Z,103373.48
2019-02-14T02:13:33.404Z,103378.30
2019-02-14T02:16:00.566Z,103380.92
2019-02-14T02:18:28.027Z,103384.42
2019-02-14T02:20:55.216Z,103381.84
2019-02-14T02:23:22.366Z,103379.17
2019-02-14T02:25:49.571Z,103377.31
2019-02-14T02:28:16.744Z,103374.22
2019-02-14T02:30:43.983Z,103370.69
2019-02-14T02:33:11.158Z,103364.13
2019-02-14T02:35:38.345Z,103364.13
2019-02-14T02:38:05.519Z,103363.62
2019-02-14T02:40:32.723Z,103367.57
2019-02-14T02:43:00.009Z,103364.50
2019-02-14T02:45:27.158Z,103368.44
2019-02-14T02:47:54.406Z,103373.25
2019-02-14T02:50:21.618Z,103371.94
2019-02-14T02:52:48.799Z,103372.78
2019-02-14T02:55:16.231Z,103365.75
2019-02-14T02:57:43.430Z,103353.52
2019-02-14T03:00:13.064Z,103354.36
2019-02-14T03:02:40.384Z,103351.30
2019-02-14T03:05:08.993Z,103350.42
2019-02-14T03:07:36.168Z,103360.94
2019-02-14T03:10:03.931Z,103368.84
2019-02-14T03:12:31.139Z,103385.05
2019-02-14T03:14:58.351Z,103392.07
2019-02-14T03:17:25.505Z,103394.28
2019-02-14T03:19:52.719Z,103392.07
2019-02-14T03:22:19.891Z,103396.02
2019-02-14T03:24:47.077Z,103392.47
2019-02-14T03:27:14.286Z,103396.88
2019-02-14T03:29:41.466Z,103392.97
2019-02-14T03:32:08.705Z,103392.94
2019-02-14T03:34:35.860Z,103403.84
2019-02-14T03:37:03.057Z,103409.99
2019-02-14T03:39:30.233Z,103406.87
2019-02-14T03:41:57.465Z,103409.99
2019-02-14T03:44:24.647Z,103402.56
2019-02-14T03:46:51.909Z,103411.29
2019-02-14T03:49:19.137Z,103413.44
2019-02-14T03:51:46.326Z,103412.17
2019-02-14T03:54:13.541Z,103404.27
2019-02-14T03:56:40.732Z,103397.30
2019-02-14T03:59:07.941Z,103395.54
2019-02-14T04:01:35.174Z,103397.25
2019-02-14T04:04:02.343Z,103395.91
2019-02-14T04:06:29.522Z,103402.48
2019-02-14T04:08:56.890Z,103399.88
2019-02-14T04:11:24.073Z,103392.87
2019-02-14T04:13:51.256Z,103401.17
2019-02-14T04:16:18.431Z,103396.81
2019-02-14T04:18:45.641Z,103394.58
2019-02-14T04:21:12.825Z,103387.59
2019-02-14T04:23:40.033Z,103386.69
2019-02-14T04:26:07.181Z,103387.56
2019-02-14T04:28:34.355Z,103389.77
2019-02-14T04:31:01.604Z,103392.84
2019-02-14T04:33:28.812Z,103400.75
2019-02-14T04:35:55.984Z,103384.11
2019-02-14T04:38:23.202Z,103376.26
2019-02-14T04:40:50.409Z,103371.89
2019-02-14T04:43:17.640Z,103374.57
2019-02-14T04:45:44.863Z,103384.21
2019-02-14T04:48:12.042Z,103391.67
2019-02-14T04:50:39.210Z,103398.30
2019-02-14T04:53:06.439Z,103391.72
2019-02-14T04:55:33.622Z,103382.53
2019-02-14T04:58:00.814Z,103375.97
2019-02-14T05:00:28.075Z,103377.73
2019-02-14T05:02:55.236Z,103388.70
2019-02-14T05:05:22.445Z,103382.59
2019-02-14T05:07:49.621Z,103386.95
2019-02-14T05:10:16.815Z,103374.29
2019-02-14T05:12:44.044Z,103377.76
2019-02-14T05:15:11.279Z,103391.77
2019-02-14T05:17:38.478Z,103393.55
2019-02-14T05:20:06.666Z,103394.40
2019-02-14T05:22:33.879Z,103397.50
2019-02-14T05:25:01.042Z,103404.09
2019-02-14T05:27:28.351Z,103412.97
2019-02-14T05:29:55.502Z,103416.48
2019-02-14T05:32:22.639Z,103422.98
2019-02-14T05:34:49.855Z,103421.62
2019-02-14T05:37:17.030Z,103417.67
2019-02-14T05:39:44.373Z,103418.10
2019-02-14T05:42:11.823Z,103419.42
2019-02-14T05:44:39.091Z,103422.05
2019-02-14T05:47:06.391Z,103432.53
2019-02-14T05:49:33.585Z,103433.00
2019-02-14T05:52:00.761Z,103430.90
2019-02-14T05:54:28.063Z,103435.69
2019-02-14T05:56:55.210Z,103443.09
2019-02-14T05:59:22.427Z,103446.59
2019-02-14T06:01:49.729Z,103452.72
2019-02-14T06:04:16.895Z,103451.41
2019-02-14T06:06:44.086Z,103446.56
2019-02-14T06:09:11.281Z,103441.31
2019-02-14T06:11:38.463Z,103440.47
2019-02-14T06:14:05.688Z,103446.20
2019-02-14T06:16:32.860Z,103448.83
2019-02-14T06:19:00.102Z,103452.77
2019-02-14T06:21:27.269Z,103446.20
2019-02-14T06:23:54.591Z,103443.09
2019-02-14T06:26:21.848Z,103440.02
2019-02-14T06:28:49.155Z,103441.76
2019-02-14T06:31:16.485Z,103435.64
2019-02-14T06:33:44.370Z,103433.05
2019-02-14T06:36:11.711Z,103437.44
2019-02-14T06:38:38.869Z,103440.55
2019-02-14T06:41:06.053Z,103450.16
2019-02-14T06:43:33.409Z,103452.75
2019-02-14T06:46:00.596Z,103456.23
2019-02-14T06:48:30.157Z,103453.16
2019-02-14T06:51:00.452Z,103446.64
2019-02-14T06:53:27.910Z,103458.03
2019-02-14T06:55:55.152Z,103456.72
2019-02-14T06:58:22.302Z,103466.30
2019-02-14T07:00:49.476Z,103467.65
2019-02-14T07:03:16.719Z,103470.25
2019-02-14T07:05:43.891Z,103461.55
2019-02-14T07:08:12.150Z,103462.05
2019-02-14T07:10:39.561Z,103466.86
2019-02-14T07:13:07.001Z,103470.33
2019-02-14T07:15:34.285Z,103477.32
2019-02-14T07:18:01.546Z,103484.79
2019-02-14T07:20:28.776Z,103480.40
2019-02-14T07:22:55.985Z,103483.95
2019-02-14T07:25:23.181Z,103486.10
2019-02-14T07:27:50.388Z,103492.28
2019-02-14T07:30:18.616Z,103505.34
2019-02-14T07:32:46.060Z,103501.80
2019-02-14T07:35:13.571Z,103507.03
2019-02-14T07:37:41.256Z,103513.97
2019-02-14T07:40:10.319Z,103517.05
2019-02-14T07:42:37.694Z,103521.87
2019-02-14T07:45:06.558Z,103520.06
2019-02-14T07:47:33.718Z,103525.77
2019-02-14T07:50:00.956Z,103520.06
2019-02-14T07:52:28.239Z,103520.12
2019-02-14T07:54:55.502Z,103521.43
2019-02-14T07:57:22.806Z,103514.83
2019-02-14T07:59:50.015Z,103510.47
2019-02-14T08:02:17.225Z,103511.34
2019-02-14T08:04:44.449Z,103512.23
2019-02-14T08:07:11.611Z,103505.20
2019-02-14T08:09:38.783Z,103503.42
2019-02-14T08:12:06.063Z,103504.77
2019-02-14T08:14:33.226Z,103494.28
2019-02-14T08:17:00.472Z,103493.41
2019-02-14T08:19:27.799Z,103496.51
2019-02-14T08:21:55.208Z,103490.41
2019-02-14T08:24:22.400Z,103497.46
2019-02-14T08:26:49.682Z,103503.64
2019-02-14T08:29:16.981Z,103507.61
2019-02-14T08:31:44.203Z,103511.13
2019-02-14T08:34:11.521Z,103515.13
2019-02-14T08:36:38.768Z,103508.58
2019-02-14T08:39:05.967Z,103509.05
2019-02-14T08:41:33.186Z,103502.89
2019-02-14T08:44:00.546Z,103495.06
2019-02-14T08:46:27.867Z,103501.23
2019-02-14T08:48:55.100Z,103502.05
2019-02-14T08:51:22.374Z,103504.28
2019-02-14T08:53:49.603Z,103498.60
2019-02-14T08:56:16.750Z,103493.80
2019-02-14T08:58:43.958Z,103486.30
2019-02-14T09:01:11.228Z,103489.35
2019-02-14T09:03:38.396Z,103488.48
2019-02-14T09:06:05.787Z,103483.75
2019-02-14T09:08:32.959Z,103488.13
2019-02-14T09:11:00.203Z,103487.70
2019-02-14T09:13:27.471Z,103495.59
2019-02-14T09:15:54.639Z,103496.08
2019-02-14T09:18:21.864Z,103498.28
2019-02-14T09:20:49.238Z,103492.58
2019-02-14T09:23:16.451Z,103489.55
2019-02-14T09:25:43.779Z,103481.64
2019-02-14T09:28:11.051Z,103479.47
2019-02-14T09:30:38.280Z,103478.60
2019-02-14T09:33:05.504Z,103481.33
2019-02-14T09:35:32.694Z,103486.20
2019-02-14T09:38:03.226Z,103485.80
2019-02-14T09:40:29.191Z,103483.14
2019-02-14T09:42:56.503Z,103479.17
2019-02-14T09:45:23.744Z,103473.48
2019-02-14T09:47:51.131Z,103475.77
2019-02-14T09:50:18.445Z,103475.33
2019-02-14T09:52:45.716Z,103474.91
2019-02-14T09:55:12.931Z,103479.78
2019-02-14T09:57:40.144Z,103493.77
2019-02-14T10:00:10.403Z,103493.28
2019-02-14T10:02:37.611Z,103498.54
2019-02-14T10:05:05.122Z,103488.84
2019-02-14T10:07:32.421Z,103499.47
2019-02-14T10:09:59.742Z,103504.28
2019-02-14T10:12:26.958Z,103502.95
2019-02-14T10:14:54.204Z,103501.30
2019-02-14T10:17:22.446Z,103497.34
2019-02-14T10:19:49.807Z,103481.09
2019-02-14T10:22:16.997Z,103484.14
2019-02-14T10:24:44.354Z,103489.45
2019-02-14T10:27:11.575Z,103490.80
2019-02-14T10:29:38.799Z,103492.61
2019-02-14T10:32:06.078Z,103491.34
2019-02-14T10:34:33.345Z,103500.58
2019-02-14T10:37:00.628Z,103495.34
2019-02-14T10:39:27.880Z,103496.73
2019-02-14T10:41:55.200Z,103494.61
2019-02-14T10:44:22.403Z,103499.03
2019-02-14T10:46:49.747Z,103501.24
2019-02-14T10:49:17.044Z,103494.70
2019-02-14T10:51:44.289Z,103490.78
2019-02-14T10:54:13.547Z,103485.11
2019-02-14T10:56:41.583Z,103480.31
2019-02-14T10:59:09.039Z,103474.56
2019-02-14T11:01:37.359Z,103476.30
2019-02-14T11:04:04.809Z,103469.70
2019-02-14T11:06:33.641Z,103471.94
2019-02-14T11:09:00.933Z,103474.70
2019-02-14T11:11:28.334Z,103484.81
2019-02-14T11:13:55.503Z,103486.16
2019-02-14T11:16:22.672Z,103489.30
2019-02-14T11:18:49.865Z,103497.66
2019-02-14T11:21:17.083Z,103497.67
2019-02-14T11:23:44.337Z,103490.56
2019-02-14T11:26:11.696Z,103492.30
2019-02-14T11:28:38.960Z,103491.99
2019-02-14T11:31:06.111Z,103498.14
2019-02-14T11:33:33.324Z,103497.20
2019-02-14T11:36:00.703Z,103503.27
2019-02-14T11:38:27.914Z,103507.66
2019-02-14T11:40:55.105Z,103505.02
2019-02-14T11:43:22.419Z,103499.31
2019-02-14T11:45:49.708Z,103492.25
2019-02-14T11:48:17.200Z,103491.86
2019-02-14T11:50:44.357Z,103489.73
2019-02-14T11:53:14.314Z,103489.76
2019-02-14T11:55:40.685Z,103490.62
2019-02-14T11:58:08.084Z,103487.16
2019-02-14T12:00:35.272Z,103482.80
2019-02-14T12:03:02.605Z,103489.86
2019-02-14T12:05:29.811Z,103476.69
2019-02-14T12:07:57.038Z,103479.74
2019-02-14T12:10:24.391Z,103485.98
2019-02-14T12:12:51.574Z,103482.98
2019-02-14T12:15:18.830Z,103479.50
2019-02-14T12:17:46.104Z,103483.45
2019-02-14T12:20:13.395Z,103475.98
2019-02-14T12:22:46.581Z,103476.02
2019-02-14T12:25:10.582Z,103469.47
2019-02-14T12:27:37.811Z,103457.16
2019-02-14T12:30:07.037Z,103460.30
2019-02-14T12:32:34.362Z,103458.55
2019-02-14T12:35:01.652Z,103453.71
2019-02-14T12:37:28.946Z,103448.47
2019-02-14T12:39:56.224Z,103450.64
2019-02-14T12:42:23.567Z,103448.91
2019-02-14T12:44:50.825Z,103443.21
2019-02-14T12:47:18.142Z,103442.78
2019-02-14T12:49:45.359Z,103442.80
2019-02-14T12:52:12.583Z,103438.84
2019-02-14T12:54:39.762Z,103431.42
2019-02-14T12:57:07.007Z,103424.40
2019-02-14T12:59:34.326Z,103424.90
2019-02-14T13:02:01.620Z,103425.72
2019-02-14T13:04:28.827Z,103425.72
2019-02-14T13:06:56.051Z,103416.96
2019-02-14T13:09:23.290Z,103424.92
2019-02-14T13:11:50.472Z,103421.39
2019-02-14T13:14:17.632Z,103421.85
2019-02-14T13:16:44.843Z,103418.34
2019-02-14T13:19:12.026Z,103421.42
2019-02-14T13:21:39.318Z,103417.04
2019-02-14T13:24:06.519Z,103412.63
2019-02-14T13:26:33.691Z,103406.50
2019-02-14T13:29:01.053Z,103412.66
2019-02-14T13:31:32.060Z,103419.75
2019-02-14T13:33:57.373Z,103415.36
2019-02-14T13:36:24.605Z,103408.80
2019-02-14T13:38:51.826Z,103411.02
2019-02-14T13:41:19.045Z,103415.41
2019-02-14T13:43:46.447Z,103413.67
2019-02-14T13:46:13.721Z,103399.15
2019-02-14T13:48:41.041Z,103403.13
2019-02-14T13:51:08.340Z,103406.20
2019-02-14T13:53:37.463Z,103408.43
2019-02-14T13:56:04.708Z,103409.31
2019-02-14T13:58:31.869Z,103406.22
2019-02-14T14:00:59.124Z,103403.58
2019-02-14T14:03:26.352Z,103401.84
2019-02-14T14:05:53.504Z,103400.95
2019-02-14T14:08:21.702Z,103409.75
2019-02-14T14:10:48.952Z,103409.33
2019-02-14T14:13:16.385Z,103409.77
2019-02-14T14:15:43.608Z,103408.01
2019-02-14T14:18:10.781Z,103407.13
2019-02-14T14:20:38.062Z,103400.98
2019-02-14T14:23:05.230Z,103398.77
2019-02-14T14:25:32.432Z,103397.88
2019-02-14T14:27:59.749Z,103405.36
2019-02-14T14:30:26.909Z,103400.52
2019-02-14T14:32:54.350Z,103403.64
2019-02-14T14:35:21.565Z,103408.48
2019-02-14T14:37:48.758Z,103405.87
2019-02-14T14:40:16.053Z,103404.54
2019-02-14T14:43:05.838Z,103400.59
2019-02-14T14:45:55.947Z,103399.70
2019-02-14T14:48:24.842Z,103407.63
2019-02-14T14:50:52.009Z,103404.11
2019-02-14T14:53:19.219Z,103400.13
2019-02-14T14:55:46.396Z,103402.33
2019-02-14T14:58:13.624Z,103401.48
2019-02-14T15:00:40.892Z,103406.31
2019-02-14T15:03:08.186Z,103400.59
2019-02-14T15:05:35.522Z,103401.46
2019-02-14T15:08:02.712Z,103401.46
2019-02-14T15:10:29.936Z,103404.97
2019-02-14T15:12:57.182Z,103403.66
2019-02-14T15:15:24.381Z,103407.19
2019-02-14T15:17:51.562Z,103413.78
2019-02-14T15:20:18.724Z,103407.21
2019-02-14T15:22:46.069Z,103408.96
2019-02-14T15:25:13.313Z,103405.88
2019-02-14T15:27:40.544Z,103401.03
2019-02-14T15:30:07.753Z,103395.77
2019-02-14T15:32:35.005Z,103399.30
2019-02-14T15:35:02.286Z,103397.48
2019-02-14T15:37:32.055Z,103400.14
2019-02-14T15:40:08.638Z,103395.28
2019-02-14T15:42:28.404Z,103401.03
2019-02-14T15:44:55.765Z,103399.72
2019-02-14T15:47:23.171Z,103398.83
2019-02-14T15:49:50.460Z,103405.86
2019-02-14T15:52:17.911Z,103400.59
2019-02-14T15:54:45.167Z,103406.34
2019-02-14T15:57:12.323Z,103412.05
2019-02-14T15:59:41.145Z,103404.12
2019-02-14T16:02:08.664Z,103399.70
2019-02-14T16:04:35.899Z,103402.81
2019-02-14T16:07:03.162Z,103401.91
2019-02-14T16:09:30.395Z,103407.62
2019-02-14T16:11:57.988Z,103397.52
2019-02-14T16:14:25.376Z,103407.20
2019-02-14T16:16:52.606Z,103406.30
2019-02-14T16:19:19.822Z,103401.41
2019-02-14T16:21:47.052Z,103409.31
2019-02-14T16:24:14.843Z,103404.88
2019-02-14T16:26:43.640Z,103411.45
2019-02-14T16:29:11.867Z,103412.73
2019-02-14T16:31:39.065Z,103410.97
2019-02-14T16:34:06.271Z,103411.38
2019-02-14T16:36:33.628Z,103414.85
2019-02-14T16:39:01.378Z,103411.30
2019-02-14T16:41:28.821Z,103416.08
2019-02-14T16:43:56.014Z,103418.23
2019-02-14T16:46:23.388Z,103413.34
2019-02-14T16:48:50.733Z,103417.70
2019-02-14T16:51:17.945Z,103416.78
2019-02-14T16:53:45.135Z,103412.81
2019-02-14T16:56:12.388Z,103415.41
2019-02-14T16:58:39.649Z,103420.20
2019-02-14T17:01:06.979Z,103418.42
2019-02-14T17:03:34.328Z,103424.54
2019-02-14T17:06:01.912Z,103418.81
2019-02-14T17:08:29.067Z,103423.59
2019-02-14T17:10:56.230Z,103420.45
2019-02-14T17:13:23.494Z,103420.86
2019-02-14T17:15:50.681Z,103427.84
2019-02-14T17:18:17.879Z,103421.19
2019-02-14T17:20:45.080Z,103416.33
2019-02-14T17:23:12.254Z,103418.05
2019-02-14T17:25:39.449Z,103420.64
2019-02-14T17:28:06.666Z,103420.59
2019-02-14T17:30:33.848Z,103418.84
2019-02-14T17:33:01.181Z,103424.92
2019-02-14T17:35:28.366Z,103421.83
2019-02-14T17:37:55.509Z,103426.63
2019-02-14T17:40:22.708Z,103424.85
2019-02-14T17:42:50.179Z,103417.80
2019-02-14T17:45:17.370Z,103421.25
2019-02-14T17:47:44.647Z,103423.38
2019-02-14T17:50:11.813Z,103424.68
2019-02-14T17:52:38.990Z,103420.69
2019-02-14T17:55:06.527Z,103418.48
2019-02-14T17:57:33.734Z,103418.89
2019-02-14T18:00:00.980Z,103417.09
2019-02-14T18:02:28.697Z,103411.41
2019-02-14T18:04:56.147Z,103412.70
2019-02-14T18:07:23.366Z,103413.13
2019-02-14T18:09:50.610Z,103411.38
2019-02-14T18:12:19.635Z,103421.86
2019-02-14T18:14:50.311Z,103417.87
2019-02-14T18:17:17.696Z,103411.67
2019-02-14T18:19:44.942Z,103416.89
2019-02-14T18:22:12.341Z,103415.98
2019-02-14T18:24:39.590Z,103410.72
2019-02-14T18:27:08.664Z,103415.50
2019-02-14T18:29:36.061Z,103414.73
2019-02-14T18:32:04.578Z,103418.27
2019-02-14T18:34:32.094Z,103421.78
2019-02-14T18:36:59.451Z,103420.01
2019-02-14T18:39:26.711Z,103414.75
2019-02-14T18:41:54.017Z,103413.89
2019-02-14T18:44:21.177Z,103427.98
2019-02-14T18:46:48.418Z,103415.69
2019-02-14T18:49:15.730Z,103418.18
2019-02-14T18:51:42.918Z,103416.70
2019-02-14T18:54:10.175Z,103415.77
2019-02-14T18:56:37.368Z,103424.50
2019-02-14T18:59:04.552Z,103431.02
2019-02-14T19:01:31.791Z,103424.84
2019-02-14T19:03:58.982Z,103425.30
2019-02-14T19:06:26.199Z,103427.98
2019-02-14T19:08:53.420Z,103425.80
2019-02-14T19:11:20.692Z,103427.91
2019-02-14T19:13:47.921Z,103422.98
2019-02-14T19:16:15.096Z,103420.76
2019-02-14T19:18:42.343Z,103422.05
2019-02-14T19:21:09.897Z,103423.75
2019-02-14T19:23:37.072Z,103422.41
2019-02-14T19:26:04.298Z,103426.41
2019-02-14T19:28:31.570Z,103424.65
2019-02-14T19:30:58.990Z,103423.86
2019-02-14T19:33:26.164Z,103421.72
2019-02-14T19:35:53.659Z,103425.21
2019-02-14T19:38:20.894Z,103424.34
2019-02-14T19:40:48.245Z,103441.16
2019-02-14T19:43:15.413Z,103425.70
2019-02-14T19:45:42.719Z,103422.23
2019-02-14T19:48:09.994Z,103413.37
2019-02-14T19:50:37.215Z,103412.82
2019-02-14T19:53:04.442Z,103406.63
2019-02-14T19:55:31.695Z,103403.53
2019-02-14T19:57:59.353Z,103401.44
2019-02-14T20:00:26.646Z,103395.78
2019-02-14T20:02:53.850Z,103399.70
2019-02-14T20:05:21.096Z,103397.98
2019-02-14T20:07:48.376Z,103394.00
2019-02-14T20:10:15.672Z,103401.77
2019-02-14T20:12:42.898Z,103402.98
2019-02-14T20:15:11.869Z,103400.27
2019-02-14T20:17:39.137Z,103400.23
2019-02-14T20:20:07.630Z,103404.11
2019-02-14T20:22:34.845Z,103401.09
2019-02-14T20:25:02.121Z,103397.25
2019-02-14T20:27:29.338Z,103398.78
2019-02-14T20:29:56.607Z,103400.15
2019-02-14T20:32:23.782Z,103402.70
2019-02-14T20:34:51.060Z,103405.61
2019-02-14T20:37:18.260Z,103408.55
2019-02-14T20:39:45.443Z,103405.83
2019-02-14T20:42:12.643Z,103404.45
2019-02-14T20:44:39.855Z,103399.17
2019-02-14T20:47:07.248Z,103398.34
2019-02-14T20:49:34.505Z,103397.42
2019-02-14T20:52:01.749Z,103392.98
2019-02-14T20:54:28.972Z,103400.86
2019-02-14T20:56:56.169Z,103398.69
2019-02-14T20:59:23.500Z,103404.72
2019-02-14T21:01:51.262Z,103405.97
2019-02-14T21:04:18.463Z,103408.57
2019-02-14T21:06:46.284Z,103410.72
2019-02-14T21:09:14.025Z,103417.26
2019-02-14T21:11:41.347Z,103423.34
2019-02-14T21:14:08.523Z,103422.00
2019-02-14T21:16:35.714Z,103423.32
2019-02-14T21:19:02.949Z,103430.75
2019-02-14T21:21:30.141Z,103429.44
2019-02-14T21:23:57.521Z,103435.11
2019-02-14T21:26:24.686Z,103435.08
2019-02-14T21:28:51.888Z,103433.30
2019-02-14T21:31:19.113Z,103428.02
2019-02-14T21:33:46.305Z,103428.91
2019-02-14T21:36:13.645Z,103426.72
2019-02-14T21:38:40.965Z,103427.56
2019-02-14T21:41:08.298Z,103422.73
2019-02-14T21:43:35.950Z,103424.43
2019-02-14T21:46:03.270Z,103427.92
2019-02-14T21:48:30.549Z,103428.34
2019-02-14T21:50:57.767Z,103425.66
2019-02-14T21:53:25.128Z,103429.20
2019-02-14T21:55:52.505Z,103428.58
2019-02-14T21:58:20.823Z,103426.23
2019-02-14T22:00:49.214Z,103424.50
2019-02-14T22:03:17.136Z,103427.05
2019-02-14T22:05:44.526Z,103423.97
2019-02-14T22:08:11.920Z,103424.42
2019-02-14T22:10:39.636Z,103429.36
2019-02-14T22:13:07.037Z,103421.53
2019-02-14T22:15:34.246Z,103425.45
2019-02-14T22:18:01.809Z,103415.76
2019-02-14T22:20:29.282Z,103421.82
2019-02-14T22:22:56.777Z,103423.13
2019-02-14T22:25:23.958Z,103417.07
2019-02-14T22:27:51.172Z,103427.55
2019-02-14T22:30:18.414Z,103423.22
2019-02-14T22:32:45.799Z,103424.92
2019-02-14T22:35:13.218Z,103433.67
2019-02-14T22:37:40.467Z,103430.09
2019-02-14T22:40:08.245Z,103429.08
2019-02-14T22:42:35.446Z,103425.36
2019-02-14T22:45:02.696Z,103424.09
2019-02-14T22:47:30.184Z,103426.89
2019-02-14T22:49:57.387Z,103426.95
2019-02-14T22:52:25.048Z,103420.69
2019-02-14T22:54:52.241Z,103422.00
2019-02-14T22:57:19.491Z,103422.06
2019-02-14T22:59:46.679Z,103421.98
2019-02-14T23:02:14.007Z,103431.67
2019-02-14T23:04:41.229Z,103427.67
2019-02-14T23:07:08.556Z,103427.77
2019-02-14T23:09:35.913Z,103432.15
2019-02-14T23:12:03.078Z,103429.05
2019-02-14T23:14:30.489Z,103436.87
2019-02-14T23:16:57.683Z,103436.93
2019-02-14T23:19:24.878Z,103434.66
2019-02-14T23:21:52.115Z,103429.86
2019-02-14T23:24:19.325Z,103428.12
2019-02-14T23:26:46.672Z,103430.42
2019-02-14T23:29:13.831Z,103442.02
2019-02-14T23:31:41.034Z,103442.41
2019-02-14T23:34:08.249Z,103437.91
2019-02-14T23:36:35.430Z,103435.80
2019-02-14T23:39:04.222Z,103438.80
2019-02-14T23:41:31.496Z,103432.12
2019-02-14T23:43:58.658Z,103428.58
2019-02-14T23:46:26.567Z,103424.97
2019-02-14T23:48:53.946Z,103429.38
2019-02-14T23:51:21.174Z,103423.83
2019-02-14T23:53:48.435Z,103424.69
2019-02-14T23:56:15.675Z,103420.46
2019-02-14T23:58:43.060Z,103422.41
